createdAt,value
2023-05-09T00:00:11.076Z,101484.84
2023-05-09T00:02:39.714Z,101470.56
2023-05-09T00:05:10.032Z,101469.94
2023-05-09T00:07:38.278Z,101471.00
2023-05-09T00:10:06.231Z,101470.91
2023-05-09T00:12:33.503Z,101478.09
2023-05-09T00:15:01.099Z,101475.47
2023-05-09T00:17:29.029Z,101474.72
2023-05-09T00:19:56.344Z,101478.69
2023-05-09T00:22:23.668Z,101473.41
2023-05-09T00:24:51.182Z,101471.97
2023-05-09T00:27:18.668Z,101475.44
2023-05-09T00:29:46.090Z,101467.06
2023-05-09T00:32:13.770Z,101469.69
2023-05-09T00:34:41.126Z,101459.34
2023-05-09T00:37:08.448Z,101474.22
2023-05-09T00:39:35.834Z,101471.53
2023-05-09T00:42:03.828Z,101462.00
2023-05-09T00:44:31.178Z,101465.81
2023-05-09T00:46:58.510Z,101460.66
2023-05-09T00:49:26.127Z,101459.81
2023-05-09T00:51:55.813Z,101461.66
2023-05-09T00:54:23.560Z,101465.81
2023-05-09T00:56:51.846Z,101463.81
2023-05-09T00:59:19.322Z,101456.56
2023-05-09T01:01:46.912Z,101459.00
2023-05-09T01:04:15.698Z,101462.47
2023-05-09T01:07:00.854Z,101463.19
2023-05-09T01:09:56.840Z,101462.94
2023-05-09T01:12:45.649Z,101461.03
2023-05-09T01:15:16.688Z,101463.91
2023-05-09T01:18:26.184Z,101458.78
2023-05-09T01:21:03.568Z,101448.81
2023-05-09T01:24:12.892Z,101444.19
2023-05-09T01:26:59.008Z,101445.78
2023-05-09T01:29:46.037Z,101443.09
2023-05-09T01:32:18.009Z,101446.88
2023-05-09T01:34:47.710Z,101450.81
2023-05-09T01:37:16.365Z,101454.56
2023-05-09T01:39:49.768Z,101457.91
2023-05-09T01:42:20.851Z,101453.69
2023-05-09T01:44:49.649Z,101444.72
2023-05-09T01:47:19.766Z,101450.22
2023-05-09T01:49:47.817Z,101442.97
2023-05-09T01:52:19.361Z,101444.84
2023-05-09T01:54:48.066Z,101441.63
2023-05-09T01:57:16.939Z,101441.59
2023-05-09T01:59:46.007Z,101434.19
2023-05-09T02:02:14.850Z,101441.69
2023-05-09T02:04:43.983Z,101448.31
2023-05-09T02:07:12.553Z,101441.97
2023-05-09T02:09:40.799Z,101449.50
2023-05-09T02:12:08.862Z,101443.03
2023-05-09T02:14:36.249Z,101447.59
2023-05-09T02:17:09.468Z,101444.84
2023-05-09T02:19:36.886Z,101437.78
2023-05-09T02:22:05.161Z,101444.84
2023-05-09T02:24:34.217Z,101446.63
2023-05-09T02:27:04.252Z,101443.03
2023-05-09T02:29:42.377Z,101446.88
2023-05-09T02:32:13.985Z,101446.13
2023-05-09T02:34:42.603Z,101446.00
2023-05-09T02:37:11.015Z,101452.47
2023-05-09T02:39:39.118Z,101447.47
2023-05-09T02:42:08.674Z,101448.81
2023-05-09T02:44:36.734Z,101450.34
2023-05-09T02:47:04.902Z,101438.13
2023-05-09T02:49:32.927Z,101435.22
2023-05-09T02:52:02.363Z,101434.06
2023-05-09T02:54:30.251Z,101437.97
2023-05-09T02:56:59.195Z,101443.34
2023-05-09T02:59:27.562Z,101447.53
2023-05-09T03:01:56.188Z,101441.56
2023-05-09T03:04:23.702Z,101435.78
2023-05-09T03:06:52.261Z,101431.84
2023-05-09T03:09:20.002Z,101433.34
2023-05-09T03:11:47.850Z,101434.84
2023-05-09T03:14:15.652Z,101431.91
2023-05-09T03:16:43.081Z,101426.09
2023-05-09T03:19:20.945Z,101422.94
2023-05-09T03:21:48.285Z,101418.22
2023-05-09T03:24:16.153Z,101415.19
2023-05-09T03:26:44.604Z,101417.00
2023-05-09T03:29:12.308Z,101412.06
2023-05-09T03:31:40.189Z,101411.13
2023-05-09T03:34:13.014Z,101418.28
2023-05-09T03:36:43.536Z,101407.38
2023-05-09T03:39:13.103Z,101414.47
2023-05-09T03:41:44.202Z,101412.75
2023-05-09T03:44:12.461Z,101411.84
2023-05-09T03:46:39.805Z,101419.16
2023-05-09T03:49:07.315Z,101417.94
2023-05-09T03:51:36.673Z,101420.84
2023-05-09T03:54:06.436Z,101422.50
2023-05-09T03:56:36.018Z,101414.41
2023-05-09T03:59:03.349Z,101415.97
2023-05-09T04:01:31.276Z,101420.59
2023-05-09T04:04:00.483Z,101422.84
2023-05-09T04:06:30.687Z,101429.38
2023-05-09T04:08:59.294Z,101424.44
2023-05-09T04:11:27.060Z,101435.06
2023-05-09T04:13:58.346Z,101436.44
2023-05-09T04:16:30.648Z,101446.13
2023-05-09T04:18:58.414Z,101447.44
2023-05-09T04:21:26.389Z,101453.50
2023-05-09T04:23:56.897Z,101454.31
2023-05-09T04:26:31.521Z,101454.94
2023-05-09T04:28:59.911Z,101444.91
2023-05-09T04:31:28.992Z,101446.69
2023-05-09T04:33:58.442Z,101449.66
2023-05-09T04:36:27.734Z,101450.72
2023-05-09T04:38:57.965Z,101445.50
2023-05-09T04:41:27.620Z,101446.47
2023-05-09T04:43:55.777Z,101449.84
2023-05-09T04:46:26.152Z,101445.03
2023-05-09T04:48:54.391Z,101450.72
2023-05-09T04:51:22.232Z,101443.56
2023-05-09T04:53:51.703Z,101450.81
2023-05-09T04:56:24.741Z,101440.91
2023-05-09T04:58:52.899Z,101444.84
2023-05-09T05:01:20.857Z,101444.97
2023-05-09T05:03:48.877Z,101446.31
2023-05-09T05:06:16.274Z,101448.06
2023-05-09T05:08:43.795Z,101450.66
2023-05-09T05:11:11.370Z,101453.81
2023-05-09T05:13:39.268Z,101451.41
2023-05-09T05:16:06.813Z,101452.22
2023-05-09T05:18:35.228Z,101445.78
2023-05-09T05:21:03.469Z,101437.97
2023-05-09T05:23:32.821Z,101429.38
2023-05-09T05:26:00.576Z,101433.78
2023-05-09T05:28:28.851Z,101437.13
2023-05-09T05:30:56.300Z,101438.41
2023-05-09T05:33:24.415Z,101427.91
2023-05-09T05:35:52.163Z,101419.88
2023-05-09T05:38:20.115Z,101427.22
2023-05-09T05:40:51.338Z,101443.25
2023-05-09T05:43:20.445Z,101445.09
2023-05-09T05:45:48.032Z,101451.28
2023-05-09T05:48:18.672Z,101451.69
2023-05-09T05:50:48.198Z,101449.50
2023-05-09T05:53:18.387Z,101458.34
2023-05-09T05:55:46.834Z,101458.53
2023-05-09T05:58:14.262Z,101465.63
2023-05-09T06:00:41.556Z,101461.88
2023-05-09T06:03:14.091Z,101462.63
2023-05-09T06:05:48.146Z,101477.50
2023-05-09T06:08:16.751Z,101475.16
2023-05-09T06:10:44.421Z,101470.53
2023-05-09T06:13:11.762Z,101471.13
2023-05-09T06:15:43.206Z,101473.44
2023-05-09T06:18:11.660Z,101476.31
2023-05-09T06:20:39.549Z,101465.13
2023-05-09T06:23:07.228Z,101466.81
2023-05-09T06:25:34.653Z,101464.06
2023-05-09T06:28:02.069Z,101465.59
2023-05-09T06:30:29.806Z,101463.78
2023-05-09T06:32:58.316Z,101460.31
2023-05-09T06:35:26.409Z,101453.00
2023-05-09T06:37:53.685Z,101454.38
2023-05-09T06:40:21.072Z,101456.13
2023-05-09T06:42:48.776Z,101452.84
2023-05-09T06:45:17.423Z,101456.13
2023-05-09T06:47:45.022Z,101452.31
2023-05-09T06:50:12.504Z,101464.56
2023-05-09T06:52:40.209Z,101459.41
2023-05-09T06:55:09.112Z,101457.34
2023-05-09T06:57:36.973Z,101455.19
2023-05-09T07:00:05.186Z,101450.13
2023-05-09T07:02:33.040Z,101444.09
2023-05-09T07:05:01.270Z,101436.91
2023-05-09T07:07:29.204Z,101428.00
2023-05-09T07:10:07.353Z,101425.47
2023-05-09T07:12:38.578Z,101418.88
2023-05-09T07:15:06.892Z,101417.56
2023-05-09T07:17:34.706Z,101416.84
2023-05-09T07:20:04.009Z,101411.66
2023-05-09T07:22:33.045Z,101414.84
2023-05-09T07:25:01.524Z,101412.66
2023-05-09T07:27:29.069Z,101414.41
2023-05-09T07:29:56.758Z,101420.63
2023-05-09T07:32:24.568Z,101408.91
2023-05-09T07:34:51.882Z,101420.31
2023-05-09T07:37:19.813Z,101417.44
2023-05-09T07:39:50.099Z,101420.22
2023-05-09T07:42:17.462Z,101419.97
2023-05-09T07:44:44.819Z,101413.34
2023-05-09T07:47:12.127Z,101421.38
2023-05-09T07:49:40.640Z,101425.34
2023-05-09T07:52:07.913Z,101420.06
2023-05-09T07:54:35.878Z,101419.31
2023-05-09T07:57:03.191Z,101420.09
2023-05-09T07:59:30.518Z,101416.81
2023-05-09T08:01:58.386Z,101409.47
2023-05-09T08:04:26.162Z,101412.94
2023-05-09T08:06:53.987Z,101410.31
2023-05-09T08:09:21.769Z,101403.38
2023-05-09T08:11:49.650Z,101407.09
2023-05-09T08:14:17.020Z,101400.63
2023-05-09T08:16:44.741Z,101393.56
2023-05-09T08:19:12.447Z,101394.84
2023-05-09T08:21:40.307Z,101400.88
2023-05-09T08:24:09.622Z,101398.78
2023-05-09T08:26:37.035Z,101401.56
2023-05-09T08:29:04.473Z,101387.19
2023-05-09T08:31:31.906Z,101392.78
2023-05-09T08:33:59.691Z,101392.75
2023-05-09T08:36:27.403Z,101394.41
2023-05-09T08:38:54.771Z,101391.81
2023-05-09T08:41:28.791Z,101386.66
2023-05-09T08:43:56.675Z,101393.25
2023-05-09T08:46:36.751Z,101396.50
2023-05-09T08:49:08.403Z,101402.25
2023-05-09T08:51:38.096Z,101399.53
2023-05-09T08:54:05.853Z,101401.78
2023-05-09T08:56:35.180Z,101391.69
2023-05-09T08:59:04.280Z,101400.19
2023-05-09T09:01:33.648Z,101393.00
2023-05-09T09:04:01.705Z,101394.34
2023-05-09T09:06:30.876Z,101388.66
2023-05-09T09:08:59.243Z,101392.59
2023-05-09T09:11:29.081Z,101376.00
2023-05-09T09:14:01.926Z,101370.28
2023-05-09T09:16:30.079Z,101368.56
2023-05-09T09:18:59.140Z,101375.56
2023-05-09T09:21:27.470Z,101368.81
2023-05-09T09:23:56.435Z,101366.69
2023-05-09T09:26:25.062Z,101358.50
2023-05-09T09:28:54.310Z,101361.75
2023-05-09T09:31:27.654Z,101349.75
2023-05-09T09:34:02.517Z,101349.69
2023-05-09T09:36:36.586Z,101348.25
2023-05-09T09:39:05.430Z,101342.13
2023-05-09T09:41:39.297Z,101340.75
2023-05-09T09:44:08.615Z,101340.22
2023-05-09T09:46:53.449Z,101337.41
2023-05-09T09:49:23.538Z,101341.34
2023-05-09T09:51:52.446Z,101332.13
2023-05-09T09:54:20.444Z,101333.47
2023-05-09T09:56:56.606Z,101331.13
2023-05-09T09:59:26.482Z,101325.03
2023-05-09T10:02:12.462Z,101323.84
2023-05-09T10:04:43.317Z,101322.16
2023-05-09T10:07:14.656Z,101321.94
2023-05-09T10:09:43.811Z,101321.19
2023-05-09T10:12:12.051Z,101311.22
2023-05-09T10:14:42.237Z,101313.47
2023-05-09T10:17:13.815Z,101319.22
2023-05-09T10:19:45.943Z,101324.91
2023-05-09T10:22:16.519Z,101309.25
2023-05-09T10:25:02.966Z,101306.84
2023-05-09T10:27:34.477Z,101309.63
2023-05-09T10:30:11.721Z,101303.00
2023-05-09T10:32:54.492Z,101302.72
2023-05-09T10:35:26.994Z,101310.84
2023-05-09T10:37:57.208Z,101306.69
2023-05-09T10:40:25.537Z,101293.06
2023-05-09T10:42:53.361Z,101290.00
2023-05-09T10:45:22.197Z,101296.38
2023-05-09T10:47:53.084Z,101291.94
2023-05-09T10:50:21.581Z,101280.28
2023-05-09T10:53:05.097Z,101266.94
2023-05-09T10:55:47.931Z,101271.31
2023-05-09T10:58:37.294Z,101268.25
2023-05-09T11:01:05.649Z,101271.28
2023-05-09T11:03:59.219Z,101259.56
2023-05-09T11:06:46.391Z,101263.69
2023-05-09T11:09:30.119Z,101247.63
2023-05-09T11:11:58.274Z,101244.38
2023-05-09T11:14:33.251Z,101240.72
2023-05-09T11:17:06.669Z,101239.28
2023-05-09T11:19:57.718Z,101232.78
2023-05-09T11:22:28.244Z,101234.72
2023-05-09T11:25:10.216Z,101219.59
2023-05-09T11:27:40.830Z,101209.63
2023-05-09T11:30:11.490Z,101211.81
2023-05-09T11:32:59.149Z,101214.66
2023-05-09T11:35:27.608Z,101210.28
2023-05-09T11:38:22.412Z,101210.00
2023-05-09T11:40:52.106Z,101204.53
2023-05-09T11:43:19.689Z,101198.47
2023-05-09T11:45:47.135Z,101185.19
2023-05-09T11:48:14.874Z,101188.47
2023-05-09T11:50:42.243Z,101188.28
2023-05-09T11:53:12.425Z,101192.94
2023-05-09T11:55:41.522Z,101181.53
2023-05-09T11:58:09.721Z,101181.84
2023-05-09T12:00:44.931Z,101170.63
2023-05-09T12:03:13.328Z,101168.66
2023-05-09T12:05:41.213Z,101154.81
2023-05-09T12:08:09.745Z,101158.91
2023-05-09T12:10:38.968Z,101148.75
2023-05-09T12:13:06.377Z,101149.94
2023-05-09T12:15:38.039Z,101140.34
2023-05-09T12:18:09.064Z,101136.38
2023-05-09T12:20:52.548Z,101130.03
2023-05-09T12:23:19.980Z,101135.41
2023-05-09T12:25:49.168Z,101125.75
2023-05-09T12:28:18.209Z,101123.75
2023-05-09T12:30:46.418Z,101112.34
2023-05-09T12:33:14.612Z,101114.81
2023-05-09T12:35:47.260Z,101109.84
2023-05-09T12:38:20.437Z,101105.09
2023-05-09T12:40:48.940Z,101106.97
2023-05-09T12:43:18.153Z,101099.38
2023-05-09T12:45:45.589Z,101104.03
2023-05-09T12:48:13.820Z,101101.69
2023-05-09T12:50:47.466Z,101100.06
2023-05-09T12:53:26.999Z,101093.16
2023-05-09T12:55:56.551Z,101085.16
2023-05-09T12:58:33.133Z,101076.53
2023-05-09T13:01:04.324Z,101071.00
2023-05-09T13:03:37.839Z,101071.97
2023-05-09T13:06:12.738Z,101069.97
2023-05-09T13:08:41.603Z,101071.69
2023-05-09T13:11:16.578Z,101068.97
2023-05-09T13:13:44.957Z,101056.97
2023-05-09T13:16:14.316Z,101050.47
2023-05-09T13:18:43.206Z,101045.06
2023-05-09T13:21:10.515Z,101044.66
2023-05-09T13:23:38.678Z,101045.66
2023-05-09T13:26:06.411Z,101038.03
2023-05-09T13:28:34.135Z,101043.63
2023-05-09T13:31:02.937Z,101041.78
2023-05-09T13:33:30.446Z,101037.72
2023-05-09T13:35:58.278Z,101033.91
2023-05-09T13:38:26.024Z,101027.31
2023-05-09T13:40:53.775Z,101023.75
2023-05-09T13:43:21.069Z,101027.41
2023-05-09T13:45:48.898Z,101025.16
2023-05-09T13:48:16.899Z,101021.22
2023-05-09T13:50:44.571Z,101014.81
2023-05-09T13:53:12.660Z,101013.13
2023-05-09T13:55:40.430Z,101016.59
2023-05-09T13:58:07.665Z,101013.25
2023-05-09T14:00:35.507Z,101000.00
2023-05-09T14:03:03.217Z,100994.97
2023-05-09T14:05:34.311Z,101003.09
2023-05-09T14:08:03.537Z,101002.06
2023-05-09T14:10:31.333Z,101003.22
2023-05-09T14:12:58.883Z,101003.09
2023-05-09T14:15:26.787Z,100997.41
2023-05-09T14:17:55.101Z,100987.84
2023-05-09T14:20:22.895Z,100982.44
2023-05-09T14:22:50.230Z,100985.75
2023-05-09T14:25:17.589Z,100981.53
2023-05-09T14:27:45.585Z,100979.88
2023-05-09T14:30:14.149Z,100979.88
2023-05-09T14:32:41.579Z,100974.97
2023-05-09T14:35:09.458Z,100973.41
2023-05-09T14:37:37.380Z,100970.59
2023-05-09T14:40:05.875Z,100964.63
2023-05-09T14:42:33.753Z,100964.25
2023-05-09T14:45:01.063Z,100966.97
2023-05-09T14:47:28.667Z,100966.72
2023-05-09T14:49:56.426Z,100968.97
2023-05-09T14:52:23.830Z,100951.94
2023-05-09T14:54:51.718Z,100956.13
2023-05-09T14:57:19.312Z,100952.88
2023-05-09T14:59:46.768Z,100954.94
2023-05-09T15:02:14.507Z,100951.94
2023-05-09T15:04:43.849Z,100959.28
2023-05-09T15:07:11.861Z,100952.63
2023-05-09T15:09:39.590Z,100949.91
2023-05-09T15:12:07.603Z,100949.19
2023-05-09T15:14:35.303Z,100951.53
2023-05-09T15:17:04.417Z,100950.91
2023-05-09T15:19:32.510Z,100959.91
2023-05-09T15:22:00.188Z,100949.28
2023-05-09T15:24:28.213Z,100942.47
2023-05-09T15:26:55.552Z,100945.06
2023-05-09T15:29:23.454Z,100942.69
2023-05-09T15:31:51.282Z,100943.16
2023-05-09T15:34:19.235Z,100941.16
2023-05-09T15:36:47.314Z,100948.47
2023-05-09T15:39:14.701Z,100940.41
2023-05-09T15:41:43.042Z,100944.31
2023-05-09T15:44:11.579Z,100943.53
2023-05-09T15:46:39.154Z,100943.13
2023-05-09T15:49:06.738Z,100941.41
2023-05-09T15:51:34.404Z,100936.09
2023-05-09T15:54:01.837Z,100926.88
2023-05-09T15:56:29.181Z,100927.69
2023-05-09T15:58:56.855Z,100921.88
2023-05-09T16:01:24.173Z,100927.13
2023-05-09T16:03:52.137Z,100933.28
2023-05-09T16:06:19.664Z,100933.75
2023-05-09T16:08:47.658Z,100928.28
2023-05-09T16:11:15.050Z,100931.44
2023-05-09T16:13:42.577Z,100926.47
2023-05-09T16:16:09.904Z,100930.88
2023-05-09T16:18:38.072Z,100929.31
2023-05-09T16:21:06.135Z,100924.56
2023-05-09T16:23:33.722Z,100925.56
2023-05-09T16:26:01.023Z,100933.84
2023-05-09T16:28:29.471Z,100920.31
2023-05-09T16:30:57.247Z,100926.78
2023-05-09T16:33:25.225Z,100921.75
2023-05-09T16:35:52.663Z,100925.97
2023-05-09T16:38:20.745Z,100921.50
2023-05-09T16:40:49.881Z,100913.47
2023-05-09T16:43:19.934Z,100915.97
2023-05-09T16:45:50.238Z,100905.97
2023-05-09T16:48:18.214Z,100905.44
2023-05-09T16:50:46.219Z,100902.66
2023-05-09T16:53:14.538Z,100904.63
2023-05-09T16:55:42.173Z,100905.19
2023-05-09T16:58:10.029Z,100910.75
2023-05-09T17:00:38.201Z,100902.97
2023-05-09T17:03:07.004Z,100902.69
2023-05-09T17:05:34.746Z,100901.34
2023-05-09T17:08:02.696Z,100902.19
2023-05-09T17:10:30.535Z,100898.84
2023-05-09T17:12:58.298Z,100909.66
2023-05-09T17:15:25.814Z,100905.78
2023-05-09T17:17:53.195Z,100903.00
2023-05-09T17:20:20.523Z,100897.19
2023-05-09T17:22:48.277Z,100898.00
2023-05-09T17:25:15.615Z,100896.34
2023-05-09T17:27:43.284Z,100899.13
2023-05-09T17:30:10.839Z,100899.69
2023-05-09T17:32:38.629Z,100894.69
2023-05-09T17:35:07.839Z,100898.56
2023-05-09T17:37:35.890Z,100902.16
2023-05-09T17:40:05.247Z,100904.34
2023-05-09T17:42:32.717Z,100901.25
2023-05-09T17:45:00.089Z,100901.84
2023-05-09T17:47:28.682Z,100908.06
2023-05-09T17:49:56.624Z,100907.75
2023-05-09T17:52:24.550Z,100908.19
2023-05-09T17:54:52.653Z,100918.91
2023-05-09T17:57:20.402Z,100914.63
2023-05-09T17:59:48.388Z,100919.22
2023-05-09T18:02:16.655Z,100919.19
2023-05-09T18:04:46.310Z,100925.25
2023-05-09T18:07:14.459Z,100919.47
2023-05-09T18:09:42.407Z,100926.34
2023-05-09T18:12:09.957Z,100925.72
2023-05-09T18:14:38.894Z,100922.59
2023-05-09T18:17:06.637Z,100924.75
2023-05-09T18:19:35.352Z,100923.38
2023-05-09T18:22:04.194Z,100930.19
2023-05-09T18:24:31.653Z,100929.88
2023-05-09T18:26:58.977Z,100927.44
2023-05-09T18:29:26.502Z,100922.31
2023-05-09T18:31:56.088Z,100929.69
2023-05-09T18:34:24.590Z,100932.25
2023-05-09T18:36:52.556Z,100928.19
2023-05-09T18:39:19.977Z,100932.53
2023-05-09T18:41:47.438Z,100924.38
2023-05-09T18:44:14.755Z,100930.59
2023-05-09T18:46:43.090Z,100931.59
2023-05-09T18:49:11.411Z,100932.16
2023-05-09T18:54:07.169Z,100922.38
2023-05-09T18:56:39.243Z,100917.03
2023-05-09T18:59:07.505Z,100924.06
2023-05-09T19:01:35.905Z,100924.50
2023-05-09T19:04:04.391Z,100928.22
2023-05-09T19:06:32.544Z,100926.06
2023-05-09T19:09:02.090Z,100933.81
2023-05-09T19:11:29.512Z,100928.44
2023-05-09T19:13:57.520Z,100929.34
2023-05-09T19:16:26.590Z,100929.72
2023-05-09T19:18:56.281Z,100935.66
2023-05-09T19:21:24.127Z,100931.03
2023-05-09T19:23:52.011Z,100935.78
2023-05-09T19:26:20.285Z,100935.84
2023-05-09T19:28:48.477Z,100937.16
2023-05-09T19:31:16.402Z,100940.75
2023-05-09T19:33:50.513Z,100932.19
2023-05-09T19:36:18.418Z,100929.16
2023-05-09T19:38:46.656Z,100935.34
2023-05-09T19:41:14.363Z,100929.16
2023-05-09T19:43:42.290Z,100926.63
2023-05-09T19:46:10.261Z,100921.16
2023-05-09T19:48:37.898Z,100924.03
2023-05-09T19:51:08.140Z,100918.81
2023-05-09T19:53:35.563Z,100920.69
2023-05-09T19:56:03.605Z,100924.22
2023-05-09T19:58:31.424Z,100927.50
2023-05-09T20:00:59.548Z,100919.91
2023-05-09T20:03:27.457Z,100931.69
2023-05-09T20:05:55.561Z,100927.34
2023-05-09T20:08:23.070Z,100929.78
2023-05-09T20:10:50.468Z,100938.78
2023-05-09T20:13:18.890Z,100939.63
2023-05-09T20:15:47.472Z,100939.38
2023-05-09T20:18:16.284Z,100941.88
2023-05-09T20:20:44.120Z,100949.84
2023-05-09T20:23:11.827Z,100950.59
2023-05-09T20:25:39.443Z,100953.25
2023-05-09T20:28:06.787Z,100952.84
2023-05-09T20:30:34.667Z,100942.81
2023-05-09T20:33:02.083Z,100946.81
2023-05-09T20:35:29.801Z,100946.31
2023-05-09T20:37:57.953Z,100931.69
2023-05-09T20:40:25.692Z,100936.19
2023-05-09T20:42:53.503Z,100932.09
2023-05-09T20:45:21.481Z,100927.44
2023-05-09T20:47:49.714Z,100925.34
2023-05-09T20:50:17.332Z,100917.75
2023-05-09T20:52:45.659Z,100921.50
2023-05-09T20:55:13.539Z,100913.81
2023-05-09T20:57:41.220Z,100912.66
2023-05-09T21:00:09.354Z,100921.72
2023-05-09T21:02:36.753Z,100912.06
2023-05-09T21:05:04.464Z,100911.38
2023-05-09T21:07:32.306Z,100915.09
2023-05-09T21:10:00.230Z,100921.03
2023-05-09T21:12:27.783Z,100905.06
2023-05-09T21:14:56.393Z,100907.13
2023-05-09T21:17:24.375Z,100913.34
2023-05-09T21:19:51.916Z,100901.34
2023-05-09T21:22:19.521Z,100905.72
2023-05-09T21:24:46.887Z,100907.03
2023-05-09T21:27:14.329Z,100913.91
2023-05-09T21:29:42.015Z,100908.66
2023-05-09T21:32:09.910Z,100915.06
2023-05-09T21:34:38.017Z,100902.53
2023-05-09T21:37:05.406Z,100910.63
2023-05-09T21:39:33.604Z,100919.81
2023-05-09T21:42:01.291Z,100921.03
2023-05-09T21:44:28.600Z,100933.59
